sensor_id;sensor_type;location;lat;lon;timestamp;pressure;altitude;pressure_sealevel;temperature;humidity
24306;BME280;12423;48.768;8.850;2022-08-03T00:01:17;97054.19;;;19.61;100.00
24306;BME280;12423;48.768;8.850;2022-08-03T00:03:18;97063.47;;;19.52;100.00
24306;BME280;12423;48.768;8.850;2022-08-03T00:05:19;97054.56;;;19.58;100.00
24306;BME280;12423;48.768;8.850;2022-08-03T00:07:20;97060.00;;;19.58;100.00
24306;BME280;12423;48.768;8.850;2022-08-03T00:09:21;97064.94;;;19.55;100.00
24306;BME280;12423;48.768;8.850;2022-08-03T00:11:22;97058.31;;;19.57;100.00
24306;BME280;12423;48.768;8.850;2022-08-03T00:13:24;97055.63;;;19.57;100.00
24306;BME280;12423;48.768;8.850;2022-08-03T00:15:25;97051.59;;;19.53;100.00
24306;BME280;12423;48.768;8.850;2022-08-03T00:17:26;97050.94;;;19.51;100.00
24306;BME280;12423;48.768;8.850;2022-08-03T00:19:27;97058.25;;;19.50;100.00
24306;BME280;12423;48.768;8.850;2022-08-03T00:21:28;97060.69;;;19.45;100.00
24306;BME280;12423;48.768;8.850;2022-08-03T00:23:29;97054.78;;;19.42;100.00
24306;BME280;12423;48.768;8.850;2022-08-03T00:25:30;97051.78;;;19.37;100.00
24306;BME280;12423;48.768;8.850;2022-08-03T00:27:31;97052.84;;;19.36;100.00
24306;BME280;12423;48.768;8.850;2022-08-03T00:29:32;97053.22;;;19.32;100.00
24306;BME280;12423;48.768;8.850;2022-08-03T00:31:33;97049.84;;;19.30;100.00
24306;BME280;12423;48.768;8.850;2022-08-03T00:33:34;97055.09;;;19.32;100.00
24306;BME280;12423;48.768;8.850;2022-08-03T00:35:35;97055.09;;;19.32;100.00
24306;BME280;12423;48.768;8.850;2022-08-03T00:37:36;97042.47;;;19.24;100.00
24306;BME280;12423;48.768;8.850;2022-08-03T00:39:37;97048.25;;;19.21;100.00
24306;BME280;12423;48.768;8.850;2022-08-03T00:41:38;97046.00;;;19.10;100.00
24306;BME280;12423;48.768;8.850;2022-08-03T00:43:39;97039.47;;;19.04;100.00
24306;BME280;12423;48.768;8.850;2022-08-03T00:45:41;97038.81;;;19.02;100.00
24306;BME280;12423;48.768;8.850;2022-08-03T00:47:42;97038.91;;;19.09;100.00
24306;BME280;12423;48.768;8.850;2022-08-03T00:49:43;97045.63;;;19.13;100.00
24306;BME280;12423;48.768;8.850;2022-08-03T00:51:45;97045.53;;;19.06;100.00
24306;BME280;12423;48.768;8.850;2022-08-03T00:53:46;97035.91;;;19.04;100.00
24306;BME280;12423;48.768;8.850;2022-08-03T00:55:47;97043.00;;;19.05;100.00
24306;BME280;12423;48.768;8.850;2022-08-03T00:57:48;97043.00;;;19.05;100.00
24306;BME280;12423;48.768;8.850;2022-08-03T00:59:50;97032.75;;;19.00;100.00
24306;BME280;12423;48.768;8.850;2022-08-03T01:01:52;97041.22;;;18.97;100.00
24306;BME280;12423;48.768;8.850;2022-08-03T01:03:53;97042.81;;;18.91;100.00
24306;BME280;12423;48.768;8.850;2022-08-03T01:06:05;97034.78;;;18.83;100.00
24306;BME280;12423;48.768;8.850;2022-08-03T01:08:45;97037.25;;;18.70;100.00
24306;BME280;12423;48.768;8.850;2022-08-03T01:15:05;97031.75;;;18.78;100.00
24306;BME280;12423;48.768;8.850;2022-08-03T01:17:13;97029.38;;;18.83;100.00
24306;BME280;12423;48.768;8.850;2022-08-03T01:19:34;97036.72;;;18.74;100.00
24306;BME280;12423;48.768;8.850;2022-08-03T01:27:02;97028.16;;;18.63;100.00
24306;BME280;12423;48.768;8.850;2022-08-03T01:29:34;97021.16;;;18.53;100.00
24306;BME280;12423;48.768;8.850;2022-08-03T01:31:40;97012.59;;;18.50;100.00
24306;BME280;12423;48.768;8.850;2022-08-03T01:33:46;97011.38;;;18.52;100.00
24306;BME280;12423;48.768;8.850;2022-08-03T01:35:54;97013.34;;;18.58;100.00
24306;BME280;12423;48.768;8.850;2022-08-03T01:38:03;97018.81;;;18.50;100.00
24306;BME280;12423;48.768;8.850;2022-08-03T01:40:06;97014.78;;;18.46;100.00
24306;BME280;12423;48.768;8.850;2022-08-03T01:42:09;97012.84;;;18.40;100.00
24306;BME280;12423;48.768;8.850;2022-08-03T01:44:11;97013.84;;;18.39;100.00
24306;BME280;12423;48.768;8.850;2022-08-03T01:46:14;97011.03;;;18.32;100.00
24306;BME280;12423;48.768;8.850;2022-08-03T01:48:17;97010.38;;;18.30;100.00
24306;BME280;12423;48.768;8.850;2022-08-03T01:50:25;97008.16;;;18.34;100.00
24306;BME280;12423;48.768;8.850;2022-08-03T01:52:29;97000.75;;;18.28;100.00
24306;BME280;12423;48.768;8.850;2022-08-03T01:54:34;97000.16;;;18.17;100.00
24306;BME280;12423;48.768;8.850;2022-08-03T01:56:36;97005.56;;;18.17;100.00
24306;BME280;12423;48.768;8.850;2022-08-03T01:58:39;96998.94;;;18.05;100.00
24306;BME280;12423;48.768;8.850;2022-08-03T02:00:42;96999.53;;;18.15;100.00
24306;BME280;12423;48.768;8.850;2022-08-03T02:02:46;97006.16;;;18.28;100.00
24306;BME280;12423;48.768;8.850;2022-08-03T02:04:49;97000.56;;;18.29;100.00
24306;BME280;12423;48.768;8.850;2022-08-03T02:06:52;97008.50;;;18.31;100.00
24306;BME280;12423;48.768;8.850;2022-08-03T02:08:55;97003.47;;;18.28;100.00
24306;BME280;12423;48.768;8.850;2022-08-03T02:10:57;97007.03;;;18.28;100.00
24306;BME280;12423;48.768;8.850;2022-08-03T02:13:00;96998.59;;;18.23;100.00
24306;BME280;12423;48.768;8.850;2022-08-03T02:15:03;96999.81;;;18.20;100.00
24306;BME280;12423;48.768;8.850;2022-08-03T02:17:06;96997.47;;;18.17;100.00
24306;BME280;12423;48.768;8.850;2022-08-03T02:19:08;96999.34;;;18.17;100.00
24306;BME280;12423;48.768;8.850;2022-08-03T02:21:10;96993.75;;;18.18;100.00
24306;BME280;12423;48.768;8.850;2022-08-03T02:23:14;96999.69;;;18.14;100.00
24306;BME280;12423;48.768;8.850;2022-08-03T02:25:15;96999.03;;;18.12;100.00
24306;BME280;12423;48.768;8.850;2022-08-03T02:27:20;97003.28;;;18.06;100.00
24306;BME280;12423;48.768;8.850;2022-08-03T02:29:24;97002.53;;;17.97;100.00
24306;BME280;12423;48.768;8.850;2022-08-03T02:31:30;97000.59;;;18.06;100.00
24306;BME280;12423;48.768;8.850;2022-08-03T02:33:36;96998.25;;;18.03;100.00
24306;BME280;12423;48.768;8.850;2022-08-03T02:35:39;97001.81;;;18.03;100.00
24306;BME280;12423;48.768;8.850;2022-08-03T02:37:45;97004.69;;;18.02;100.00
24306;BME280;12423;48.768;8.850;2022-08-03T02:39:47;97001.31;;;18.00;100.00
24306;BME280;12423;48.768;8.850;2022-08-03T02:41:53;97001.69;;;17.97;100.00
24306;BME280;12423;48.768;8.850;2022-08-03T02:44:07;97002.22;;;17.92;100.00
24306;BME280;12423;48.768;8.850;2022-08-03T02:46:09;97000.53;;;17.91;100.00
24306;BME280;12423;48.768;8.850;2022-08-03T02:48:22;96997.66;;;17.93;100.00
24306;BME280;12423;48.768;8.850;2022-08-03T02:50:23;96999.88;;;17.89;100.00
24306;BME280;12423;48.768;8.850;2022-08-03T02:52:27;96989.25;;;17.79;100.00
24306;BME280;12423;48.768;8.850;2022-08-03T02:54:30;96997.50;;;17.86;100.00
24306;BME280;12423;48.768;8.850;2022-08-03T02:56:33;96994.47;;;17.89;100.00
24306;BME280;12423;48.768;8.850;2022-08-03T02:58:36;96993.97;;;17.85;100.00
24306;BME280;12423;48.768;8.850;2022-08-03T03:00:39;96995.31;;;17.90;100.00
24306;BME280;12423;48.768;8.850;2022-08-03T03:02:43;96991.25;;;17.85;100.00
24306;BME280;12423;48.768;8.850;2022-08-03T03:04:46;96993.63;;;17.89;100.00
24306;BME280;12423;48.768;8.850;2022-08-03T03:06:49;96991.25;;;17.85;100.00
24306;BME280;12423;48.768;8.850;2022-08-03T03:08:51;96991.50;;;17.76;100.00
24306;BME280;12423;48.768;8.850;2022-08-03T03:10:54;96984.94;;;17.70;100.00
24306;BME280;12423;48.768;8.850;2022-08-03T03:12:57;96987.84;;;17.60;100.00
24306;BME280;12423;48.768;8.850;2022-08-03T03:14:58;96989.53;;;17.61;100.00
24306;BME280;12423;48.768;8.850;2022-08-03T03:17:00;96993.06;;;17.62;100.00
24306;BME280;12423;48.768;8.850;2022-08-03T03:19:01;96991.63;;;17.51;100.00
24306;BME280;12423;48.768;8.850;2022-08-03T03:21:03;96991.16;;;17.47;100.00
24306;BME280;12423;48.768;8.850;2022-08-03T03:23:06;96985.63;;;17.41;100.00
24306;BME280;12423;48.768;8.850;2022-08-03T03:25:09;96985.25;;;17.44;100.00
24306;BME280;12423;48.768;8.850;2022-08-03T03:27:10;96983.75;;;17.41;100.00
24306;BME280;12423;48.768;8.850;2022-08-03T03:29:14;96989.81;;;17.43;100.00
24306;BME280;12423;48.768;8.850;2022-08-03T03:31:15;96978.66;;;17.46;100.00
24306;BME280;12423;48.768;8.850;2022-08-03T03:33:16;96985.78;;;17.39;100.00
24306;BME280;12423;48.768;8.850;2022-08-03T03:35:17;96986.16;;;17.36;100.00
24306;BME280;12423;48.768;8.850;2022-08-03T03:37:19;96989.50;;;17.38;100.00
24306;BME280;12423;48.768;8.850;2022-08-03T03:39:20;96981.72;;;17.43;100.00
24306;BME280;12423;48.768;8.850;2022-08-03T03:41:21;96987.16;;;17.35;100.00
24306;BME280;12423;48.768;8.850;2022-08-03T03:43:22;96983.13;;;17.31;100.00
24306;BME280;12423;48.768;8.850;2022-08-03T03:45:23;96984.13;;;17.30;100.00
24306;BME280;12423;48.768;8.850;2022-08-03T03:47:24;96983.47;;;17.28;100.00
24306;BME280;12423;48.768;8.850;2022-08-03T03:49:25;96987.00;;;17.28;100.00
24306;BME280;12423;48.768;8.850;2022-08-03T03:51:26;96984.97;;;17.30;100.00
24306;BME280;12423;48.768;8.850;2022-08-03T03:53:27;96979.09;;;17.27;100.00
24306;BME280;12423;48.768;8.850;2022-08-03T03:55:29;96984.66;;;17.25;100.00
24306;BME280;12423;48.768;8.850;2022-08-03T03:57:30;96990.38;;;17.30;100.00
24306;BME280;12423;48.768;8.850;2022-08-03T03:59:31;96989.97;;;17.42;100.00
24306;BME280;12423;48.768;8.850;2022-08-03T04:01:32;96999.59;;;17.44;100.00
24306;BME280;12423;48.768;8.850;2022-08-03T04:03:34;96990.41;;;17.22;100.00
24306;BME280;12423;48.768;8.850;2022-08-03T04:05:35;96986.88;;;17.22;100.00
24306;BME280;12423;48.768;8.850;2022-08-03T04:08:06;96987.34;;;17.25;100.00
24306;BME280;12423;48.768;8.850;2022-08-03T04:10:30;96992.97;;;17.16;100.00
24306;BME280;12423;48.768;8.850;2022-08-03T04:12:53;96991.09;;;17.24;100.00
24306;BME280;12423;48.768;8.850;2022-08-03T04:14:57;96990.53;;;17.29;100.00
24306;BME280;12423;48.768;8.850;2022-08-03T04:17:03;96993.59;;;17.34;100.00
24306;BME280;12423;48.768;8.850;2022-08-03T04:19:08;96996.75;;;17.38;100.00
24306;BME280;12423;48.768;8.850;2022-08-03T04:21:11;96997.47;;;17.31;100.00
24306;BME280;12423;48.768;8.850;2022-08-03T04:23:15;96996.91;;;17.44;100.00
24306;BME280;12423;48.768;8.850;2022-08-03T04:25:19;96999.25;;;17.47;100.00
24306;BME280;12423;48.768;8.850;2022-08-03T04:27:27;96999.59;;;17.44;100.00
24306;BME280;12423;48.768;8.850;2022-08-03T04:29:32;97001.78;;;17.49;100.00
24306;BME280;12423;48.768;8.850;2022-08-03T04:31:34;97008.19;;;17.48;100.00
24306;BME280;12423;48.768;8.850;2022-08-03T04:33:37;97005.66;;;17.46;100.00
24306;BME280;12423;48.768;8.850;2022-08-03T04:35:40;97005.31;;;17.49;100.00
24306;BME280;12423;48.768;8.850;2022-08-03T04:37:48;97008.00;;;17.49;100.00
24306;BME280;12423;48.768;8.850;2022-08-03T04:39:52;97007.84;;;17.51;100.00
24306;BME280;12423;48.768;8.850;2022-08-03T04:41:57;97015.41;;;17.56;100.00
24306;BME280;12423;48.768;8.850;2022-08-03T04:43:59;97003.41;;;17.58;100.00
24306;BME280;12423;48.768;8.850;2022-08-03T04:46:01;97014.56;;;17.55;100.00
24306;BME280;12423;48.768;8.850;2022-08-03T04:48:03;97005.78;;;17.53;100.00
24306;BME280;12423;48.768;8.850;2022-08-03T04:50:05;97011.97;;;17.62;100.00
24306;BME280;12423;48.768;8.850;2022-08-03T04:52:07;97017.72;;;17.67;100.00
24306;BME280;12423;48.768;8.850;2022-08-03T04:54:12;97005.34;;;17.73;100.00
24306;BME280;12423;48.768;8.850;2022-08-03T04:56:13;97006.88;;;17.75;100.00
24306;BME280;12423;48.768;8.850;2022-08-03T04:58:14;97009.56;;;17.75;100.00
24306;BME280;12423;48.768;8.850;2022-08-03T05:00:16;97011.72;;;17.80;100.00
24306;BME280;12423;48.768;8.850;2022-08-03T05:02:17;97015.91;;;17.91;100.00
24306;BME280;12423;48.768;8.850;2022-08-03T05:04:18;97014.41;;;17.80;100.00
24306;BME280;12423;48.768;8.850;2022-08-03T05:06:20;97015.56;;;17.85;100.00
24306;BME280;12423;48.768;8.850;2022-08-03T05:08:21;97012.56;;;17.89;100.00
24306;BME280;12423;48.768;8.850;2022-08-03T05:10:22;97007.63;;;17.92;100.00
24306;BME280;12423;48.768;8.850;2022-08-03T05:12:23;97018.91;;;17.96;100.00
24306;BME280;12423;48.768;8.850;2022-08-03T05:14:24;97015.16;;;18.05;100.00
24306;BME280;12423;48.768;8.850;2022-08-03T05:16:24;97024.91;;;18.06;100.00
24306;BME280;12423;48.768;8.850;2022-08-03T05:18:25;97016.16;;;18.04;100.00
24306;BME280;12423;48.768;8.850;2022-08-03T05:20:26;97018.97;;;18.11;100.00
24306;BME280;12423;48.768;8.850;2022-08-03T05:22:27;97023.13;;;18.21;100.00
24306;BME280;12423;48.768;8.850;2022-08-03T05:24:28;97026.50;;;18.23;100.00
24306;BME280;12423;48.768;8.850;2022-08-03T05:26:29;97019.31;;;18.31;100.00
24306;BME280;12423;48.768;8.850;2022-08-03T05:28:30;97024.38;;;18.34;100.00
24306;BME280;12423;48.768;8.850;2022-08-03T05:30:31;97019.25;;;18.39;100.00
24306;BME280;12423;48.768;8.850;2022-08-03T05:32:32;97016.66;;;18.46;100.00
24306;BME280;12423;48.768;8.850;2022-08-03T05:34:33;97019.19;;;18.47;100.00
24306;BME280;12423;48.768;8.850;2022-08-03T05:36:34;97017.13;;;18.49;100.00
24306;BME280;12423;48.768;8.850;2022-08-03T05:38:35;97018.09;;;18.56;100.00
24306;BME280;12423;48.768;8.850;2022-08-03T05:40:37;97021.81;;;18.55;100.00
24306;BME280;12423;48.768;8.850;2022-08-03T05:42:38;97023.16;;;18.59;100.00
24306;BME280;12423;48.768;8.850;2022-08-03T05:44:38;97024.63;;;18.62;100.00
24306;BME280;12423;48.768;8.850;2022-08-03T05:46:39;97022.69;;;18.71;100.00
24306;BME280;12423;48.768;8.850;2022-08-03T05:48:41;97027.91;;;18.72;100.00
24306;BME280;12423;48.768;8.850;2022-08-03T05:50:42;97024.47;;;18.78;100.00
24306;BME280;12423;48.768;8.850;2022-08-03T05:52:43;97028.81;;;18.88;100.00
24306;BME280;12423;48.768;8.850;2022-08-03T05:54:44;97030.31;;;18.90;100.00
24306;BME280;12423;48.768;8.850;2022-08-03T05:56:45;97027.88;;;18.95;100.00
24306;BME280;12423;48.768;8.850;2022-08-03T05:58:46;97028.84;;;19.03;100.00
24306;BME280;12423;48.768;8.850;2022-08-03T06:00:47;97021.00;;;19.08;100.00
24306;BME280;12423;48.768;8.850;2022-08-03T06:02:48;97023.97;;;19.13;100.00
24306;BME280;12423;48.768;8.850;2022-08-03T06:04:49;97028.09;;;19.24;100.00
24306;BME280;12423;48.768;8.850;2022-08-03T06:06:50;97035.00;;;19.26;100.00
24306;BME280;12423;48.768;8.850;2022-08-03T06:08:51;97018.47;;;19.36;100.00
24306;BME280;12423;48.768;8.850;2022-08-03T06:10:52;97030.69;;;19.47;100.00
24306;BME280;12423;48.768;8.850;2022-08-03T06:12:53;97025.53;;;19.52;100.00
24306;BME280;12423;48.768;8.850;2022-08-03T06:14:54;97024.56;;;19.60;100.00
24306;BME280;12423;48.768;8.850;2022-08-03T06:16:55;97020.56;;;19.70;100.00
24306;BME280;12423;48.768;8.850;2022-08-03T06:18:56;97024.19;;;19.78;100.00
24306;BME280;12423;48.768;8.850;2022-08-03T06:20:57;97014.50;;;19.83;100.00
24306;BME280;12423;48.768;8.850;2022-08-03T06:22:58;97034.56;;;19.89;100.00
24306;BME280;12423;48.768;8.850;2022-08-03T06:25:00;97022.75;;;19.97;100.00
24306;BME280;12423;48.768;8.850;2022-08-03T06:27:01;97020.56;;;20.07;100.00
24306;BME280;12423;48.768;8.850;2022-08-03T06:29:02;97018.31;;;20.11;100.00
24306;BME280;12423;48.768;8.850;2022-08-03T06:31:02;97020.25;;;20.17;100.00
24306;BME280;12423;48.768;8.850;2022-08-03T06:33:03;97023.22;;;20.22;100.00
24306;BME280;12423;48.768;8.850;2022-08-03T06:35:06;97017.22;;;20.27;100.00
24306;BME280;12423;48.768;8.850;2022-08-03T06:37:07;97018.97;;;20.34;100.00
24306;BME280;12423;48.768;8.850;2022-08-03T06:39:08;97014.81;;;20.38;100.00
24306;BME280;12423;48.768;8.850;2022-08-03T06:41:09;97009.25;;;20.47;100.00
24306;BME280;12423;48.768;8.850;2022-08-03T06:43:10;97009.38;;;20.60;100.00
24306;BME280;12423;48.768;8.850;2022-08-03T06:45:11;97019.47;;;20.66;100.00
24306;BME280;12423;48.768;8.850;2022-08-03T06:47:12;97014.09;;;20.73;100.00
24306;BME280;12423;48.768;8.850;2022-08-03T06:49:13;97019.81;;;20.85;100.00
24306;BME280;12423;48.768;8.850;2022-08-03T06:51:14;97019.66;;;20.93;100.00
24306;BME280;12423;48.768;8.850;2022-08-03T06:53:15;97020.53;;;21.00;100.00
24306;BME280;12423;48.768;8.850;2022-08-03T06:55:16;97016.00;;;21.07;100.00
24306;BME280;12423;48.768;8.850;2022-08-03T06:57:17;97015.66;;;21.17;100.00
24306;BME280;12423;48.768;8.850;2022-08-03T06:59:18;97022.38;;;21.28;100.00
24306;BME280;12423;48.768;8.850;2022-08-03T07:01:19;97019.50;;;21.36;100.00
24306;BME280;12423;48.768;8.850;2022-08-03T07:03:20;97022.88;;;21.45;100.00
24306;BME280;12423;48.768;8.850;2022-08-03T07:05:21;97020.88;;;21.53;100.00
24306;BME280;12423;48.768;8.850;2022-08-03T07:07:22;97021.34;;;21.64;100.00
24306;BME280;12423;48.768;8.850;2022-08-03T07:09:23;97023.09;;;21.85;100.00
24306;BME280;12423;48.768;8.850;2022-08-03T07:11:26;97022.50;;;21.89;100.00
24306;BME280;12423;48.768;8.850;2022-08-03T07:13:28;97021.25;;;21.99;100.00
24306;BME280;12423;48.768;8.850;2022-08-03T07:15:29;97018.97;;;22.09;100.00
24306;BME280;12423;48.768;8.850;2022-08-03T07:17:32;97019.69;;;22.38;96.78
24306;BME280;12423;48.768;8.850;2022-08-03T07:19:34;97027.44;;;22.54;95.13
24306;BME280;12423;48.768;8.850;2022-08-03T07:21:35;97015.06;;;22.72;93.41
24306;BME280;12423;48.768;8.850;2022-08-03T07:23:36;97024.91;;;22.86;93.20
24306;BME280;12423;48.768;8.850;2022-08-03T07:25:37;97019.03;;;22.96;92.21
24306;BME280;12423;48.768;8.850;2022-08-03T07:27:42;97019.91;;;23.16;90.72
24306;BME280;12423;48.768;8.850;2022-08-03T07:29:43;97021.94;;;23.28;91.64
24306;BME280;12423;48.768;8.850;2022-08-03T07:31:44;97023.63;;;23.35;90.76
24306;BME280;12423;48.768;8.850;2022-08-03T07:33:45;97016.69;;;23.40;89.92
24306;BME280;12423;48.768;8.850;2022-08-03T07:35:47;97009.72;;;23.50;89.96
24306;BME280;12423;48.768;8.850;2022-08-03T07:37:48;97016.59;;;23.66;87.09
24306;BME280;12423;48.768;8.850;2022-08-03T07:39:49;97013.84;;;23.73;86.72
24306;BME280;12423;48.768;8.850;2022-08-03T07:41:50;97020.25;;;23.92;85.74
24306;BME280;12423;48.768;8.850;2022-08-03T07:43:51;97021.69;;;24.01;82.69
24306;BME280;12423;48.768;8.850;2022-08-03T07:45:52;97017.88;;;24.09;83.28
24306;BME280;12423;48.768;8.850;2022-08-03T07:47:53;97017.97;;;24.27;82.29
24306;BME280;12423;48.768;8.850;2022-08-03T07:49:54;97014.75;;;24.37;82.04
24306;BME280;12423;48.768;8.850;2022-08-03T07:51:55;97024.28;;;24.53;80.11
24306;BME280;12423;48.768;8.850;2022-08-03T07:54:15;97018.41;;;24.56;79.38
24306;BME280;12423;48.768;8.850;2022-08-03T07:56:16;97019.88;;;24.59;78.45
24306;BME280;12423;48.768;8.850;2022-08-03T07:58:17;97014.81;;;24.62;78.74
24306;BME280;12423;48.768;8.850;2022-08-03T08:00:18;97016.38;;;24.77;78.63
24306;BME280;12423;48.768;8.850;2022-08-03T08:02:19;97006.88;;;24.79;77.90
24306;BME280;12423;48.768;8.850;2022-08-03T08:04:20;97022.34;;;24.92;77.34
24306;BME280;12423;48.768;8.850;2022-08-03T08:06:21;97016.88;;;24.92;76.32
24306;BME280;12423;48.768;8.850;2022-08-03T08:08:22;97013.63;;;25.02;74.87
24306;BME280;12423;48.768;8.850;2022-08-03T08:10:23;97013.59;;;25.27;71.83
24306;BME280;12423;48.768;8.850;2022-08-03T08:12:24;97008.06;;;25.34;70.71
24306;BME280;12423;48.768;8.850;2022-08-03T08:14:25;97008.22;;;25.39;71.40
24306;BME280;12423;48.768;8.850;2022-08-03T08:16:26;97008.00;;;25.41;72.21
24306;BME280;12423;48.768;8.850;2022-08-03T08:18:27;97003.69;;;25.51;71.54
24306;BME280;12423;48.768;8.850;2022-08-03T08:20:32;97010.75;;;25.59;70.66
24306;BME280;12423;48.768;8.850;2022-08-03T08:22:34;97011.50;;;25.66;69.95
24306;BME280;12423;48.768;8.850;2022-08-03T08:24:34;96995.81;;;25.73;69.53
24306;BME280;12423;48.768;8.850;2022-08-03T08:26:36;97000.28;;;25.86;68.38
24306;BME280;12423;48.768;8.850;2022-08-03T08:28:37;97009.22;;;25.93;66.88
24306;BME280;12423;48.768;8.850;2022-08-03T08:30:38;96996.34;;;26.01;66.57
24306;BME280;12423;48.768;8.850;2022-08-03T08:32:40;97001.72;;;26.07;65.80
24306;BME280;12423;48.768;8.850;2022-08-03T08:34:41;97002.22;;;26.16;65.79
24306;BME280;12423;48.768;8.850;2022-08-03T08:36:42;97000.97;;;26.30;65.16
24306;BME280;12423;48.768;8.850;2022-08-03T08:38:43;97006.22;;;26.32;64.13
24306;BME280;12423;48.768;8.850;2022-08-03T08:40:44;96996.31;;;26.31;63.50
24306;BME280;12423;48.768;8.850;2022-08-03T08:42:45;97007.44;;;26.48;62.25
24306;BME280;12423;48.768;8.850;2022-08-03T08:44:47;97003.16;;;26.52;62.83
24306;BME280;12423;48.768;8.850;2022-08-03T08:46:49;96998.41;;;26.59;61.81
24306;BME280;12423;48.768;8.850;2022-08-03T08:48:52;97006.22;;;26.86;58.71
24306;BME280;12423;48.768;8.850;2022-08-03T08:50:54;97001.94;;;26.90;57.38
24306;BME280;12423;48.768;8.850;2022-08-03T08:52:59;96996.56;;;26.95;57.54
24306;BME280;12423;48.768;8.850;2022-08-03T08:55:04;97002.03;;;26.95;58.03
24306;BME280;12423;48.768;8.850;2022-08-03T08:57:06;97009.44;;;27.07;57.95
24306;BME280;12423;48.768;8.850;2022-08-03T08:59:09;96997.53;;;27.13;54.65
24306;BME280;12423;48.768;8.850;2022-08-03T09:01:10;97001.09;;;27.25;53.51
24306;BME280;12423;48.768;8.850;2022-08-03T09:03:11;96998.00;;;27.33;54.46
24306;BME280;12423;48.768;8.850;2022-08-03T09:05:16;97003.94;;;27.54;53.21
24306;BME280;12423;48.768;8.850;2022-08-03T09:07:17;97004.78;;;27.54;52.96
24306;BME280;12423;48.768;8.850;2022-08-03T09:09:18;97002.81;;;27.67;52.99
24306;BME280;12423;48.768;8.850;2022-08-03T09:11:21;97003.63;;;27.79;50.61
24306;BME280;12423;48.768;8.850;2022-08-03T09:13:22;97001.34;;;27.88;50.26
24306;BME280;12423;48.768;8.850;2022-08-03T09:15:26;96994.28;;;27.92;52.15
24306;BME280;12423;48.768;8.850;2022-08-03T09:17:39;96997.25;;;28.02;51.95
24306;BME280;12423;48.768;8.850;2022-08-03T09:19:40;96997.84;;;28.04;50.79
24306;BME280;12423;48.768;8.850;2022-08-03T09:21:42;97002.84;;;28.07;50.62
24306;BME280;12423;48.768;8.850;2022-08-03T09:23:53;96990.59;;;28.27;50.55
24306;BME280;12423;48.768;8.850;2022-08-03T09:25:57;96992.44;;;28.38;49.00
24306;BME280;12423;48.768;8.850;2022-08-03T09:28:05;96992.13;;;28.52;47.86
24306;BME280;12423;48.768;8.850;2022-08-03T09:30:12;96999.16;;;28.76;46.26
24306;BME280;12423;48.768;8.850;2022-08-03T09:32:13;96999.16;;;28.76;47.83
24306;BME280;12423;48.768;8.850;2022-08-03T09:34:16;96993.41;;;28.78;47.67
24306;BME280;12423;48.768;8.850;2022-08-03T09:38:37;96988.06;;;28.88;46.49
24306;BME280;12423;48.768;8.850;2022-08-03T09:40:39;96988.28;;;29.03;46.34
24306;BME280;12423;48.768;8.850;2022-08-03T09:42:55;96979.94;;;29.15;47.07
24306;BME280;12423;48.768;8.850;2022-08-03T09:44:56;96980.16;;;29.26;47.02
24306;BME280;12423;48.768;8.850;2022-08-03T09:47:00;96983.03;;;29.36;47.00
24306;BME280;12423;48.768;8.850;2022-08-03T09:49:11;96987.84;;;29.46;46.04
24306;BME280;12423;48.768;8.850;2022-08-03T09:51:12;96981.22;;;29.47;46.28
24306;BME280;12423;48.768;8.850;2022-08-03T09:53:16;96984.31;;;29.50;46.77
24306;BME280;12423;48.768;8.850;2022-08-03T09:55:17;96982.47;;;29.78;46.08
24306;BME280;12423;48.768;8.850;2022-08-03T09:57:24;96982.97;;;29.75;46.82
24306;BME280;12423;48.768;8.850;2022-08-03T09:59:30;96985.81;;;29.80;45.75
24306;BME280;12423;48.768;8.850;2022-08-03T10:01:32;96989.25;;;29.92;44.44
24306;BME280;12423;48.768;8.850;2022-08-03T10:03:37;96982.00;;;30.08;44.85
24306;BME280;12423;48.768;8.850;2022-08-03T10:05:38;96977.03;;;30.05;44.82
24306;BME280;12423;48.768;8.850;2022-08-03T10:07:45;96980.88;;;30.31;44.22
24306;BME280;12423;48.768;8.850;2022-08-03T10:09:58;96978.69;;;30.33;44.38
24306;BME280;12423;48.768;8.850;2022-08-03T10:12:10;96969.16;;;30.41;45.12
24306;BME280;12423;48.768;8.850;2022-08-03T10:14:11;96968.84;;;30.38;44.02
24306;BME280;12423;48.768;8.850;2022-08-03T10:16:18;96963.19;;;30.55;44.47
24306;BME280;12423;48.768;8.850;2022-08-03T10:18:19;96963.72;;;30.84;44.75
24306;BME280;12423;48.768;8.850;2022-08-03T10:20:20;96966.75;;;30.82;43.45
24306;BME280;12423;48.768;8.850;2022-08-03T10:22:22;96964.97;;;31.03;43.84
24306;BME280;12423;48.768;8.850;2022-08-03T10:24:25;96962.50;;;31.02;42.63
24306;BME280;12423;48.768;8.850;2022-08-03T10:26:30;96959.81;;;31.12;43.00
24306;BME280;12423;48.768;8.850;2022-08-03T10:28:39;96964.56;;;31.22;41.71
24306;BME280;12423;48.768;8.850;2022-08-03T10:30:43;96957.72;;;30.92;42.62
24306;BME280;12423;48.768;8.850;2022-08-03T10:32:51;96960.66;;;31.18;42.60
24306;BME280;12423;48.768;8.850;2022-08-03T10:35:03;96960.19;;;31.36;42.81
24306;BME280;12423;48.768;8.850;2022-08-03T10:37:08;96959.25;;;31.58;42.29
24306;BME280;12423;48.768;8.850;2022-08-03T10:39:10;96959.84;;;31.70;41.66
24306;BME280;12423;48.768;8.850;2022-08-03T10:41:12;96955.53;;;32.05;42.04
24306;BME280;12423;48.768;8.850;2022-08-03T10:43:21;96950.91;;;32.21;41.91
24306;BME280;12423;48.768;8.850;2022-08-03T10:45:26;96942.59;;;32.16;40.83
24306;BME280;12423;48.768;8.850;2022-08-03T10:47:28;96931.28;;;32.38;40.46
24306;BME280;12423;48.768;8.850;2022-08-03T10:49:29;96940.69;;;32.47;40.99
24306;BME280;12423;48.768;8.850;2022-08-03T10:51:32;96952.91;;;32.67;38.69
24306;BME280;12423;48.768;8.850;2022-08-03T10:53:38;96939.06;;;32.67;39.19
24306;BME280;12423;48.768;8.850;2022-08-03T10:55:45;96940.72;;;32.73;38.39
24306;BME280;12423;48.768;8.850;2022-08-03T10:58:05;96931.84;;;32.86;38.59